Time;durP1;ratioP1;P1;durP2;ratioP2;P2;SDS_P1;SDS_P2;PMS_P1;PMS_P2;Temp;Humidity;BMP_temperature;BMP_pressure;BME280_temperature;BME280_humidity;BME280_pressure;Samples;Min_cycle;Max_cycle;Signal;HPM_P1;HPM_P2
2024/02/17 00:01:30;;;;;;;21.50;12.17;;;;;;;;;;4877884;29;20682;-82
2024/02/17 00:03:58;;;;;;;21.77;11.83;;;;;;;;;;4878534;29;20652;-83
2024/02/17 00:06:25;;;;;;;19.93;12.10;;;;;;;;;;4877866;29;20218;-82
2024/02/17 00:08:52;;;;;;;17.73;10.77;;;;;;;;;;4878278;29;20272;-81
2024/02/17 00:11:21;;;;;;;14.13;11.10;;;;;;;;;;4878236;29;20246;-83
2024/02/17 00:13:48;;;;;;;15.87;9.67;;;;;;;;;;4878487;29;20206;-83
2024/02/17 00:16:15;;;;;;;16.07;10.47;;;;;;;;;;4878301;29;20202;-82
2024/02/17 00:18:43;;;;;;;15.70;9.27;;;;;;;;;;4878263;29;20251;-82
2024/02/17 00:21:10;;;;;;;14.90;8.40;;;;;;;;;;4877311;29;20229;-82
2024/02/17 00:23:37;;;;;;;13.53;8.50;;;;;;;;;;4878697;29;20205;-82
2024/02/17 00:26:05;;;;;;;12.53;8.27;;;;;;;;;;4878369;29;20229;-83
2024/02/17 00:28:33;;;;;;;11.23;8.50;;;;;;;;;;4877531;29;20765;-81
2024/02/17 00:31:01;;;;;;;15.20;8.60;;;;;;;;;;4878064;29;20285;-82
2024/02/17 00:33:28;;;;;;;12.73;7.80;;;;;;;;;;4878325;29;20213;-83
2024/02/17 00:35:55;;;;;;;13.93;8.20;;;;;;;;;;4877465;29;20770;-82
2024/02/17 00:38:23;;;;;;;11.33;8.33;;;;;;;;;;4877829;29;20217;-82
2024/02/17 00:40:50;;;;;;;16.10;9.67;;;;;;;;;;4877965;29;20320;-82
2024/02/17 00:43:17;;;;;;;14.53;9.03;;;;;;;;;;4877899;29;20295;-84
2024/02/17 00:45:48;;;;;;;12.03;8.67;;;;;;;;;;4877812;29;20288;-83
2024/02/17 00:48:15;;;;;;;15.10;9.23;;;;;;;;;;4877530;29;20309;-83
2024/02/17 00:50:43;;;;;;;16.87;9.67;;;;;;;;;;4877272;29;20580;-83
2024/02/17 00:53:10;;;;;;;13.17;9.47;;;;;;;;;;4878160;29;20233;-83
2024/02/17 00:55:38;;;;;;;14.30;9.10;;;;;;;;;;4877536;29;20715;-83
2024/02/17 00:58:05;;;;;;;15.13;9.50;;;;;;;;;;4878000;29;20246;-84
2024/02/17 01:00:33;;;;;;;15.40;8.93;;;;;;;;;;4877626;29;20233;-83
2024/02/17 01:03:01;;;;;;;17.57;9.40;;;;;;;;;;4877442;29;20614;-83
2024/02/17 01:05:29;;;;;;;15.70;9.47;;;;;;;;;;4877634;29;20293;-83
2024/02/17 01:07:56;;;;;;;15.83;9.63;;;;;;;;;;4877772;29;20206;-83
2024/02/17 01:10:23;;;;;;;15.67;9.53;;;;;;;;;;4881471;29;20240;-82
2024/02/17 01:12:51;;;;;;;16.47;9.90;;;;;;;;;;4881378;29;20968;-83
2024/02/17 01:15:18;;;;;;;15.40;9.77;;;;;;;;;;4881433;29;20217;-83
2024/02/17 01:17:45;;;;;;;14.67;8.80;;;;;;;;;;4881121;29;20208;-82
2024/02/17 01:20:14;;;;;;;16.37;9.33;;;;;;;;;;4881436;29;20576;-84
2024/02/17 01:22:41;;;;;;;12.83;8.70;;;;;;;;;;4880977;29;20205;-83
2024/02/17 01:25:09;;;;;;;14.10;9.60;;;;;;;;;;4881089;29;20299;-84
2024/02/17 01:27:36;;;;;;;17.23;9.37;;;;;;;;;;4881601;29;20254;-83
2024/02/17 01:30:03;;;;;;;16.37;9.40;;;;;;;;;;4881287;29;20247;-84
2024/02/17 01:32:31;;;;;;;13.20;9.40;;;;;;;;;;4880999;29;20245;-83
2024/02/17 01:34:58;;;;;;;15.57;9.53;;;;;;;;;;4881150;29;20667;-84
2024/02/17 01:37:27;;;;;;;15.07;8.70;;;;;;;;;;4880930;29;20217;-83
2024/02/17 01:39:54;;;;;;;17.87;8.90;;;;;;;;;;4880747;29;20237;-83
2024/02/17 01:42:21;;;;;;;16.30;9.30;;;;;;;;;;4880970;29;20417;-83
2024/02/17 01:44:48;;;;;;;15.50;9.23;;;;;;;;;;4881124;29;20237;-83
2024/02/17 01:47:16;;;;;;;17.07;9.20;;;;;;;;;;4880596;29;20256;-84
2024/02/17 01:49:44;;;;;;;13.33;9.17;;;;;;;;;;4880508;29;20224;-83
2024/02/17 01:52:11;;;;;;;15.20;9.27;;;;;;;;;;4880703;29;20256;-82
2024/02/17 01:54:40;;;;;;;12.63;8.50;;;;;;;;;;4881052;29;20273;-83
2024/02/17 01:57:08;;;;;;;11.70;7.67;;;;;;;;;;4880662;29;20298;-83
2024/02/17 01:59:36;;;;;;;14.13;7.60;;;;;;;;;;4880464;29;20313;-83
2024/02/17 02:02:03;;;;;;;12.20;8.27;;;;;;;;;;4880311;29;20323;-84
2024/02/17 02:04:31;;;;;;;14.90;8.03;;;;;;;;;;4880783;29;20240;-84
2024/02/17 02:06:58;;;;;;;13.40;7.63;;;;;;;;;;4880688;29;20229;-84
2024/02/17 02:09:25;;;;;;;14.73;8.07;;;;;;;;;;4880753;29;20291;-83
2024/02/17 02:11:56;;;;;;;11.43;7.90;;;;;;;;;;4880774;29;20211;-84
2024/02/17 02:14:24;;;;;;;9.93;7.07;;;;;;;;;;4880243;29;20677;-84
2024/02/17 02:16:52;;;;;;;11.73;7.70;;;;;;;;;;4880469;29;20693;-83
2024/02/17 02:19:19;;;;;;;15.00;8.13;;;;;;;;;;4880545;29;20208;-84
2024/02/17 02:21:46;;;;;;;11.53;7.63;;;;;;;;;;4879977;29;20239;-83
2024/02/17 02:24:13;;;;;;;11.07;7.50;;;;;;;;;;4880657;29;20207;-83
2024/02/17 02:26:42;;;;;;;15.97;8.73;;;;;;;;;;4880219;29;20215;-84
2024/02/17 02:29:09;;;;;;;14.33;8.60;;;;;;;;;;4880144;29;20231;-84
2024/02/17 02:31:37;;;;;;;13.47;8.67;;;;;;;;;;4879797;29;20238;-83
2024/02/17 02:34:04;;;;;;;13.03;8.33;;;;;;;;;;4880638;29;20208;-84
2024/02/17 02:36:31;;;;;;;16.77;8.37;;;;;;;;;;4879107;29;20242;-83
2024/02/17 02:38:59;;;;;;;12.17;8.30;;;;;;;;;;4861656;29;20250;-84
2024/02/17 02:41:26;;;;;;;11.30;7.07;;;;;;;;;;4856885;29;20653;-84
2024/02/17 02:43:54;;;;;;;11.13;7.43;;;;;;;;;;4853175;29;20360;-84
2024/02/17 02:46:22;;;;;;;11.33;6.97;;;;;;;;;;4861528;29;20673;-85
2024/02/17 02:48:49;;;;;;;11.87;7.27;;;;;;;;;;4861555;29;20634;-84
2024/02/17 02:51:17;;;;;;;12.53;7.97;;;;;;;;;;4861392;29;20236;-84
2024/02/17 02:53:44;;;;;;;14.80;7.70;;;;;;;;;;4861234;29;20204;-84
2024/02/17 02:56:12;;;;;;;14.67;8.70;;;;;;;;;;4861433;29;20257;-84
2024/02/17 02:58:39;;;;;;;15.40;8.90;;;;;;;;;;4861101;29;20286;-83
2024/02/17 03:01:08;;;;;;;12.93;8.40;;;;;;;;;;4860693;29;20255;-83
2024/02/17 03:03:35;;;;;;;13.83;8.50;;;;;;;;;;4861033;29;20213;-84
2024/02/17 03:06:03;;;;;;;14.23;8.03;;;;;;;;;;4860712;29;20223;-84
2024/02/17 03:08:30;;;;;;;15.03;8.53;;;;;;;;;;4861504;29;20614;-84
2024/02/17 03:10:57;;;;;;;15.57;8.27;;;;;;;;;;4860865;29;20266;-83
2024/02/17 03:13:25;;;;;;;16.07;8.93;;;;;;;;;;4860641;29;20208;-84
2024/02/17 03:15:52;;;;;;;15.40;8.37;;;;;;;;;;4860813;29;20263;-84
2024/02/17 03:18:21;;;;;;;13.63;8.17;;;;;;;;;;4860737;29;20209;-84
2024/02/17 03:20:48;;;;;;;11.93;7.83;;;;;;;;;;4860677;29;20201;-84
2024/02/17 03:23:15;;;;;;;16.37;8.77;;;;;;;;;;4860450;29;20254;-83
2024/02/17 03:25:42;;;;;;;12.30;8.13;;;;;;;;;;4860684;29;20209;-84
2024/02/17 03:28:10;;;;;;;13.90;8.20;;;;;;;;;;4860268;29;20269;-83
2024/02/17 03:30:38;;;;;;;15.67;8.13;;;;;;;;;;4860178;29;20235;-84
2024/02/17 03:33:06;;;;;;;12.90;8.50;;;;;;;;;;4860617;29;20200;-84
2024/02/17 03:35:34;;;;;;;14.17;8.20;;;;;;;;;;4866267;29;20252;-84
2024/02/17 03:38:02;;;;;;;10.67;7.47;;;;;;;;;;4878706;29;20228;-85
2024/02/17 03:40:29;;;;;;;14.33;8.47;;;;;;;;;;4878989;29;20209;-84
2024/02/17 03:42:56;;;;;;;12.17;8.37;;;;;;;;;;4878569;29;20740;-84
2024/02/17 03:45:24;;;;;;;10.30;7.63;;;;;;;;;;4879168;29;20259;-83
2024/02/17 03:47:52;;;;;;;11.67;7.43;;;;;;;;;;4878771;29;20265;-84
2024/02/17 03:50:19;;;;;;;12.60;8.43;;;;;;;;;;4879023;29;20246;-84
2024/02/17 03:52:47;;;;;;;12.10;8.20;;;;;;;;;;4879064;29;20240;-83
2024/02/17 03:55:15;;;;;;;13.90;9.00;;;;;;;;;;4878502;29;20657;-83
2024/02/17 03:57:42;;;;;;;12.43;8.47;;;;;;;;;;4878152;29;20256;-84
2024/02/17 04:00:13;;;;;;;11.97;7.53;;;;;;;;;;4879074;29;20249;-83
2024/02/17 04:02:40;;;;;;;14.53;8.03;;;;;;;;;;4878464;29;20252;-83
2024/02/17 04:05:08;;;;;;;10.70;7.30;;;;;;;;;;4878602;29;20642;-83
2024/02/17 04:07:35;;;;;;;14.13;8.00;;;;;;;;;;4878943;29;20645;-83
2024/02/17 04:10:04;;;;;;;11.13;7.10;;;;;;;;;;4878512;29;20208;-83
2024/02/17 04:12:31;;;;;;;11.37;7.17;;;;;;;;;;4878283;29;20299;-84
2024/02/17 04:14:59;;;;;;;13.50;7.37;;;;;;;;;;4878141;29;20621;-83
2024/02/17 04:17:26;;;;;;;14.77;7.43;;;;;;;;;;4877948;29;20261;-84
2024/02/17 04:19:53;;;;;;;13.20;7.43;;;;;;;;;;4878506;29;20272;-83
2024/02/17 04:22:20;;;;;;;12.50;6.77;;;;;;;;;;4878183;29;20270;-84
2024/02/17 04:24:48;;;;;;;16.80;7.07;;;;;;;;;;4878627;29;20616;-84
2024/02/17 04:27:16;;;;;;;12.27;7.13;;;;;;;;;;4877738;29;20203;-84
2024/02/17 04:29:44;;;;;;;14.27;7.83;;;;;;;;;;4878455;29;20209;-84
2024/02/17 04:32:11;;;;;;;14.50;7.80;;;;;;;;;;4878012;29;20203;-83
2024/02/17 04:34:38;;;;;;;14.57;7.53;;;;;;;;;;4878306;29;20210;-84
2024/02/17 04:37:06;;;;;;;10.87;7.73;;;;;;;;;;4873200;29;20290;-83
2024/02/17 04:39:33;;;;;;;14.70;7.57;;;;;;;;;;4859912;29;20244;-83
2024/02/17 04:42:00;;;;;;;12.90;6.87;;;;;;;;;;4859546;29;20272;-84
2024/02/17 04:44:29;;;;;;;13.53;7.50;;;;;;;;;;4858950;29;20209;-83
2024/02/17 04:46:56;;;;;;;19.10;8.00;;;;;;;;;;4859976;29;20214;-83
2024/02/17 04:49:23;;;;;;;16.77;7.67;;;;;;;;;;4859514;29;20268;-84
2024/02/17 04:51:50;;;;;;;12.13;7.43;;;;;;;;;;4859388;29;20213;-84
2024/02/17 04:54:18;;;;;;;16.83;8.07;;;;;;;;;;4859588;29;20292;-83
2024/02/17 04:56:45;;;;;;;16.33;7.87;;;;;;;;;;4858808;29;20216;-83
2024/02/17 04:59:12;;;;;;;18.57;8.07;;;;;;;;;;4859530;29;20296;-84
2024/02/17 05:01:42;;;;;;;13.70;7.90;;;;;;;;;;4859661;29;20327;-84
2024/02/17 05:04:09;;;;;;;14.03;7.60;;;;;;;;;;4859428;29;20241;-83
2024/02/17 05:06:36;;;;;;;15.70;8.30;;;;;;;;;;4859181;29;20232;-84
2024/02/17 05:09:03;;;;;;;13.10;7.77;;;;;;;;;;4859007;29;20207;-84
2024/02/17 05:11:31;;;;;;;12.00;7.93;;;;;;;;;;4859373;29;20251;-83
2024/02/17 05:13:58;;;;;;;16.27;7.93;;;;;;;;;;4859000;29;20662;-84
2024/02/17 05:16:26;;;;;;;15.97;8.90;;;;;;;;;;4859204;29;20304;-83
2024/02/17 05:18:54;;;;;;;16.53;9.97;;;;;;;;;;4859297;29;20298;-84
2024/02/17 05:21:21;;;;;;;18.10;10.03;;;;;;;;;;4859065;29;20294;-84
2024/02/17 05:23:49;;;;;;;15.33;9.53;;;;;;;;;;4859129;29;20293;-83
2024/02/17 05:26:16;;;;;;;13.50;8.73;;;;;;;;;;4858845;29;20297;-84
2024/02/17 05:28:43;;;;;;;12.63;8.17;;;;;;;;;;4859590;29;20255;-84
2024/02/17 05:31:25;;;;;;;11.73;8.47;;;;;;;;;;4859425;29;20698;-84
2024/02/17 05:33:52;;;;;;;14.43;9.40;;;;;;;;;;4859481;29;20233;-84
2024/02/17 05:36:21;;;;;;;12.60;8.73;;;;;;;;;;4870850;29;20727;-84
2024/02/17 05:38:48;;;;;;;14.90;9.47;;;;;;;;;;4877366;29;20233;-84
2024/02/17 05:41:16;;;;;;;11.07;7.90;;;;;;;;;;4877610;29;20293;-83
2024/02/17 05:43:43;;;;;;;12.80;9.63;;;;;;;;;;4877465;29;20328;-84
2024/02/17 05:46:10;;;;;;;14.30;8.87;;;;;;;;;;4877812;29;20207;-84
2024/02/17 05:48:37;;;;;;;14.13;8.27;;;;;;;;;;4877400;29;20266;-84
2024/02/17 05:51:05;;;;;;;12.23;8.07;;;;;;;;;;4877511;29;20304;-84
2024/02/17 05:53:33;;;;;;;13.00;8.70;;;;;;;;;;4877584;29;20202;-83
2024/02/17 05:56:01;;;;;;;15.20;8.63;;;;;;;;;;4880396;29;20213;-84
2024/02/17 05:58:28;;;;;;;11.67;7.90;;;;;;;;;;4880764;29;20289;-82
2024/02/17 06:00:59;;;;;;;13.03;8.13;;;;;;;;;;4880852;29;20300;-84
2024/02/17 06:03:26;;;;;;;12.60;8.00;;;;;;;;;;4880530;29;20222;-82
2024/02/17 06:05:54;;;;;;;13.50;8.53;;;;;;;;;;4880510;29;20702;-84
2024/02/17 06:08:21;;;;;;;12.43;8.37;;;;;;;;;;4880457;29;20229;-84
2024/02/17 06:10:50;;;;;;;15.30;9.40;;;;;;;;;;4880801;29;20198;-83
2024/02/17 06:13:19;;;;;;;14.77;9.13;;;;;;;;;;4880927;29;20740;-84
2024/02/17 06:15:46;;;;;;;13.97;9.00;;;;;;;;;;4880766;29;20206;-84
2024/02/17 06:21:13;;;;;;;15.10;9.30;;;;;;;;;;4859756;29;20214;-84
2024/02/17 06:23:42;;;;;;;13.20;9.30;;;;;;;;;;4858874;29;20850;-84
2024/02/17 06:26:20;;;;;;;16.10;9.87;;;;;;;;;;4859714;29;20198;-82
2024/02/17 06:28:48;;;;;;;14.23;8.73;;;;;;;;;;4859667;29;20255;-84
2024/02/17 06:31:15;;;;;;;14.27;8.13;;;;;;;;;;4859467;29;20211;-84
2024/02/17 06:33:42;;;;;;;13.60;8.33;;;;;;;;;;4860072;29;20685;-84
2024/02/17 06:36:10;;;;;;;13.90;8.17;;;;;;;;;;4859405;29;20769;-84
2024/02/17 06:38:37;;;;;;;16.77;8.30;;;;;;;;;;4859061;29;20246;-84
2024/02/17 06:41:04;;;;;;;14.73;8.13;;;;;;;;;;4859721;29;20592;-84
2024/02/17 06:43:33;;;;;;;20.50;9.03;;;;;;;;;;4859065;29;20321;-83
2024/02/17 06:46:01;;;;;;;14.50;7.37;;;;;;;;;;4860178;29;20213;-84
2024/02/17 06:48:28;;;;;;;16.73;8.97;;;;;;;;;;4859017;29;20207;-84
2024/02/17 06:50:55;;;;;;;18.40;8.60;;;;;;;;;;4859137;29;20214;-84
2024/02/17 06:53:23;;;;;;;17.67;9.57;;;;;;;;;;4859406;29;20579;-84
2024/02/17 06:55:50;;;;;;;20.63;8.83;;;;;;;;;;4859276;29;20264;-84
2024/02/17 06:58:17;;;;;;;18.23;8.10;;;;;;;;;;4874504;29;20686;-83
2024/02/17 07:00:47;;;;;;;15.00;7.93;;;;;;;;;;4880086;29;20297;-85
2024/02/17 07:03:14;;;;;;;15.73;7.90;;;;;;;;;;4879882;29;20241;-84
2024/02/17 07:05:41;;;;;;;17.10;7.87;;;;;;;;;;4878755;29;20242;-83
2024/02/17 07:08:10;;;;;;;14.73;7.70;;;;;;;;;;4879704;29;20290;-84
2024/02/17 07:10:37;;;;;;;15.73;7.40;;;;;;;;;;4879874;29;20229;-84
2024/02/17 07:13:06;;;;;;;15.43;7.80;;;;;;;;;;4879466;29;20262;-83
2024/02/17 07:15:34;;;;;;;14.17;8.50;;;;;;;;;;4878652;29;20244;-82
2024/02/17 07:18:03;;;;;;;16.77;8.03;;;;;;;;;;4893660;29;20209;-84
2024/02/17 07:20:31;;;;;;;13.67;8.03;;;;;;;;;;4897483;29;20659;-84
2024/02/17 07:22:58;;;;;;;15.27;8.33;;;;;;;;;;4897694;29;20319;-84
2024/02/17 07:25:27;;;;;;;17.90;8.43;;;;;;;;;;4897740;29;20750;-84
2024/02/17 07:27:57;;;;;;;14.77;8.10;;;;;;;;;;4897674;29;20621;-82
2024/02/17 07:30:24;;;;;;;17.67;8.80;;;;;;;;;;4897705;29;20201;-84
2024/02/17 07:32:52;;;;;;;17.97;8.47;;;;;;;;;;4894484;29;20202;-83
2024/02/17 07:35:20;;;;;;;13.50;8.20;;;;;;;;;;4878498;29;20718;-84
2024/02/17 07:37:47;;;;;;;15.90;9.20;;;;;;;;;;4878809;29;20294;-84
2024/02/17 07:40:15;;;;;;;16.90;9.83;;;;;;;;;;4878732;29;20201;-85
2024/02/17 07:42:42;;;;;;;16.57;10.03;;;;;;;;;;4879192;29;20317;-83
2024/02/17 07:45:09;;;;;;;12.37;8.70;;;;;;;;;;4878997;29;20632;-84
2024/02/17 07:47:37;;;;;;;9.70;7.83;;;;;;;;;;4878536;29;20293;-84
2024/02/17 07:50:04;;;;;;;13.13;7.83;;;;;;;;;;4878307;29;20226;-84
2024/02/17 07:52:33;;;;;;;14.83;7.97;;;;;;;;;;4879029;29;20447;-82
2024/02/17 07:55:00;;;;;;;15.33;8.47;;;;;;;;;;4878410;29;20289;-84
2024/02/17 07:57:27;;;;;;;12.63;8.40;;;;;;;;;;4878529;29;20205;-79
2024/02/17 07:59:55;;;;;;;11.70;8.37;;;;;;;;;;4878120;29;20212;-82
2024/02/17 08:02:22;;;;;;;14.40;9.32;;;;;;;;;;4877451;29;20480;-81
2024/02/17 08:04:49;;;;;;;17.03;8.93;;;;;;;;;;4877991;29;20234;-81
2024/02/17 08:07:16;;;;;;;18.90;9.80;;;;;;;;;;4878273;29;20216;-85
2024/02/17 08:09:47;;;;;;;18.40;9.80;;;;;;;;;;4883573;29;20225;-80
2024/02/17 08:12:15;;;;;;;17.03;9.70;;;;;;;;;;4896732;29;20209;-81
2024/02/17 08:14:43;;;;;;;20.23;9.70;;;;;;;;;;4896480;29;20208;-81
2024/02/17 08:17:10;;;;;;;18.57;9.63;;;;;;;;;;4895032;29;20208;-81
2024/02/17 08:19:38;;;;;;;16.37;9.03;;;;;;;;;;4878014;29;20229;-81
2024/02/17 08:22:05;;;;;;;17.57;8.33;;;;;;;;;;4877752;29;20202;-81
2024/02/17 08:24:33;;;;;;;15.70;8.33;;;;;;;;;;4877627;29;20798;-81
2024/02/17 08:27:01;;;;;;;14.37;8.03;;;;;;;;;;4877882;29;20233;-82
2024/02/17 08:29:29;;;;;;;16.23;7.77;;;;;;;;;;4878075;29;20695;-81
2024/02/17 08:31:56;;;;;;;19.17;7.20;;;;;;;;;;4878229;29;20198;-81
2024/02/17 08:34:24;;;;;;;25.30;8.13;;;;;;;;;;4877667;29;20233;-81
2024/02/17 08:36:51;;;;;;;17.40;7.97;;;;;;;;;;4877588;29;20249;-81
2024/02/17 08:39:18;;;;;;;22.23;6.67;;;;;;;;;;4877655;29;20625;-81
2024/02/17 08:41:46;;;;;;;16.40;7.13;;;;;;;;;;4877856;29;20644;-81
2024/02/17 08:44:14;;;;;;;11.03;6.90;;;;;;;;;;4877699;29;20328;-81
2024/02/17 08:46:41;;;;;;;15.67;6.83;;;;;;;;;;4877966;29;20237;-82
2024/02/17 08:49:08;;;;;;;12.20;5.80;;;;;;;;;;4877149;29;20212;-81
2024/02/17 08:51:37;;;;;;;13.00;5.40;;;;;;;;;;4875633;29;20208;-81
2024/02/17 08:54:04;;;;;;;8.47;5.10;;;;;;;;;;4874461;29;20213;-81
2024/02/17 08:56:32;;;;;;;11.07;5.53;;;;;;;;;;4874515;29;20212;-81
2024/02/17 08:58:59;;;;;;;9.70;5.07;;;;;;;;;;4874197;29;20763;-81
2024/02/17 09:01:28;;;;;;;10.80;5.90;;;;;;;;;;4537588;29;9999913;-79
2024/02/17 09:03:55;;;;;;;9.53;5.97;;;;;;;;;;4873745;29;20239;-81
2024/02/17 09:06:22;;;;;;;12.13;5.40;;;;;;;;;;4874002;29;20312;-80
2024/02/17 09:08:50;;;;;;;11.07;5.93;;;;;;;;;;4876419;29;20233;-80
2024/02/17 09:11:17;;;;;;;7.83;5.53;;;;;;;;;;4875101;29;20201;-80
2024/02/17 09:13:46;;;;;;;10.83;5.53;;;;;;;;;;4890443;29;20262;-80
2024/02/17 09:16:13;;;;;;;9.90;5.90;;;;;;;;;;4877211;29;20253;-80
2024/02/17 09:18:42;;;;;;;12.67;5.87;;;;;;;;;;4885566;29;20244;-81
2024/02/17 09:21:09;;;;;;;11.63;6.07;;;;;;;;;;4883766;29;20257;-79
2024/02/17 09:23:36;;;;;;;11.23;5.57;;;;;;;;;;4892102;29;20229;-80
2024/02/17 09:26:04;;;;;;;11.93;6.60;;;;;;;;;;4881040;29;20205;-80
2024/02/17 09:28:31;;;;;;;10.17;6.77;;;;;;;;;;4885502;29;20202;-80
2024/02/17 09:30:58;;;;;;;11.53;6.60;;;;;;;;;;4890974;29;20274;-81
2024/02/17 09:33:28;;;;;;;11.33;6.40;;;;;;;;;;4884987;29;20209;-80
2024/02/17 09:35:56;;;;;;;14.50;7.30;;;;;;;;;;4881448;29;20225;-80
2024/02/17 09:38:24;;;;;;;17.50;8.03;;;;;;;;;;4885549;29;20246;-80
2024/02/17 09:40:52;;;;;;;13.00;7.50;;;;;;;;;;4890320;29;20300;-80
2024/02/17 09:43:19;;;;;;;11.90;7.30;;;;;;;;;;4889277;29;20252;-80
2024/02/17 09:45:47;;;;;;;11.93;6.87;;;;;;;;;;4886920;29;20262;-80
2024/02/17 09:48:15;;;;;;;11.77;6.50;;;;;;;;;;4896005;29;20204;-81
2024/02/17 09:50:44;;;;;;;9.27;5.93;;;;;;;;;;4879667;29;20198;-79
2024/02/17 09:53:13;;;;;;;9.83;5.40;;;;;;;;;;4882115;29;20241;-80
2024/02/17 09:55:43;;;;;;;7.43;4.63;;;;;;;;;;4879973;29;20221;-80
2024/02/17 09:58:10;;;;;;;7.60;5.20;;;;;;;;;;4880527;29;20214;-80
2024/02/17 10:00:37;;;;;;;7.30;5.00;;;;;;;;;;4879474;29;20727;-80
2024/02/17 10:03:05;;;;;;;8.50;5.00;;;;;;;;;;4879576;29;20230;-80
2024/02/17 10:05:32;;;;;;;8.37;4.83;;;;;;;;;;4879973;29;20286;-80
2024/02/17 10:08:00;;;;;;;10.17;4.60;;;;;;;;;;4879565;29;20202;-80
2024/02/17 10:10:28;;;;;;;5.97;4.30;;;;;;;;;;4879550;29;20285;-81
2024/02/17 10:12:56;;;;;;;9.13;4.70;;;;;;;;;;4879962;29;20292;-80
2024/02/17 10:15:24;;;;;;;6.73;4.73;;;;;;;;;;4879410;29;20317;-79
2024/02/17 10:17:51;;;;;;;8.40;5.20;;;;;;;;;;4879762;29;20202;-80
2024/02/17 10:20:18;;;;;;;8.13;5.90;;;;;;;;;;4879970;29;20581;-81
2024/02/17 10:22:46;;;;;;;11.23;6.70;;;;;;;;;;4879962;29;20298;-80
2024/02/17 10:25:14;;;;;;;9.40;7.40;;;;;;;;;;4879924;29;20240;-80
2024/02/17 10:27:44;;;;;;;11.70;8.13;;;;;;;;;;4880202;29;20606;-80
2024/02/17 10:30:12;;;;;;;17.73;11.73;;;;;;;;;;4879861;29;20202;-80
2024/02/17 10:32:40;;;;;;;21.23;12.63;;;;;;;;;;4879675;29;20236;-81
2024/02/17 10:35:08;;;;;;;22.87;13.67;;;;;;;;;;4879784;29;20218;-80
2024/02/17 10:37:38;;;;;;;21.33;13.30;;;;;;;;;;4879843;29;20234;-80
2024/02/17 10:40:07;;;;;;;15.33;9.97;;;;;;;;;;4879644;29;20206;-81
2024/02/17 10:42:34;;;;;;;9.43;5.73;;;;;;;;;;4879469;29;20201;-80
2024/02/17 10:45:03;;;;;;;8.57;4.87;;;;;;;;;;4879413;29;20321;-80
2024/02/17 10:47:33;;;;;;;12.73;6.40;;;;;;;;;;4879827;29;20210;-80
2024/02/17 10:50:04;;;;;;;7.97;4.50;;;;;;;;;;4879678;29;20297;-80
2024/02/17 10:52:32;;;;;;;6.93;4.63;;;;;;;;;;4879552;29;20229;-80
2024/02/17 10:55:03;;;;;;;10.20;5.30;;;;;;;;;;4879968;29;20221;-80
2024/02/17 10:57:34;;;;;;;6.87;4.87;;;;;;;;;;4879002;29;20202;-80
2024/02/17 11:00:04;;;;;;;6.23;4.50;;;;;;;;;;4879409;29;20560;-80
2024/02/17 11:02:31;;;;;;;4.93;3.70;;;;;;;;;;4879532;29;20240;-80
2024/02/17 11:04:59;;;;;;;6.77;4.00;;;;;;;;;;4879333;29;20328;-80
2024/02/17 11:07:26;;;;;;;6.67;4.33;;;;;;;;;;4879078;29;20698;-80
2024/02/17 11:10:02;;;;;;;4.50;3.77;;;;;;;;;;4879672;29;20285;-80
2024/02/17 11:12:33;;;;;;;7.47;4.20;;;;;;;;;;4876397;29;20224;-81
2024/02/17 11:15:01;;;;;;;6.57;3.75;;;;;;;;;;4875833;29;20691;-80
2024/02/17 11:17:36;;;;;;;6.38;4.22;;;;;;;;;;4875867;29;20297;-81
2024/02/17 11:20:07;;;;;;;6.18;3.97;;;;;;;;;;4539400;29;10000528;-79
2024/02/17 11:22:34;;;;;;;7.20;4.10;;;;;;;;;;4875612;29;20226;-80
2024/02/17 11:25:02;;;;;;;9.70;4.45;;;;;;;;;;4875467;29;20256;-80
2024/02/17 11:27:31;;;;;;;7.50;4.53;;;;;;;;;;4875715;29;20244;-80
2024/02/17 11:30:01;;;;;;;9.98;4.95;;;;;;;;;;4875539;29;20206;-80
2024/02/17 11:32:29;;;;;;;7.38;4.47;;;;;;;;;;4875248;29;20297;-80
2024/02/17 11:34:58;;;;;;;6.68;4.30;;;;;;;;;;4875415;29;20216;-79
2024/02/17 11:37:25;;;;;;;6.63;3.90;;;;;;;;;;4875238;29;20213;-81
2024/02/17 11:39:52;;;;;;;5.40;3.35;;;;;;;;;;4875283;29;20229;-82
2024/02/17 11:42:20;;;;;;;6.53;3.25;;;;;;;;;;4875305;29;20288;-80
2024/02/17 11:44:47;;;;;;;5.93;3.90;;;;;;;;;;4875136;29;20234;-81
2024/02/17 11:47:15;;;;;;;8.00;3.95;;;;;;;;;;4875635;29;20209;-80
2024/02/17 11:49:43;;;;;;;5.50;3.90;;;;;;;;;;4875317;29;20237;-81
2024/02/17 11:52:11;;;;;;;8.15;4.00;;;;;;;;;;4874927;29;20213;-79
2024/02/17 11:54:39;;;;;;;5.38;3.20;;;;;;;;;;4875395;29;20209;-80
2024/02/17 11:57:07;;;;;;;5.60;3.33;;;;;;;;;;4874791;29;20206;-81
2024/02/17 11:59:36;;;;;;;7.45;3.85;;;;;;;;;;4874775;29;20229;-81
2024/02/17 12:02:04;;;;;;;6.78;4.00;;;;;;;;;;4874970;29;20206;-80
2024/02/17 12:04:33;;;;;;;6.20;4.00;;;;;;;;;;4874890;29;20321;-81
2024/02/17 12:07:03;;;;;;;6.45;3.83;;;;;;;;;;4875215;29;20208;-80
2024/02/17 12:09:33;;;;;;;5.50;3.78;;;;;;;;;;4875518;29;20206;-79
2024/02/17 12:12:00;;;;;;;5.95;3.88;;;;;;;;;;4874291;29;20292;-80
2024/02/17 12:14:27;;;;;;;3.75;3.35;;;;;;;;;;4874557;29;20206;-80
2024/02/17 12:16:55;;;;;;;5.75;3.80;;;;;;;;;;4875628;29;20204;-80
2024/02/17 12:19:22;;;;;;;6.97;4.07;;;;;;;;;;4879701;29;20672;-80
2024/02/17 12:21:49;;;;;;;5.72;3.75;;;;;;;;;;4889971;29;20929;-80
2024/02/17 12:24:17;;;;;;;7.40;3.75;;;;;;;;;;4880586;29;20363;-79
2024/02/17 12:26:45;;;;;;;7.07;2.95;;;;;;;;;;4891861;29;20229;-80
2024/02/17 12:29:13;;;;;;;6.30;3.55;;;;;;;;;;4885533;29;20284;-81
2024/02/17 12:31:46;;;;;;;8.25;3.30;;;;;;;;;;4885019;29;20602;-81
2024/02/17 12:34:25;;;;;;;8.25;3.30;;;;;;;;;;4892907;29;20272;-79
2024/02/17 12:36:52;;;;;;;6.75;3.28;;;;;;;;;;4885113;29;20271;-80
2024/02/17 12:39:19;;;;;;;6.68;3.47;;;;;;;;;;4886462;29;20576;-79
2024/02/17 12:41:48;;;;;;;9.30;3.97;;;;;;;;;;4897067;29;20244;-79
2024/02/17 12:44:15;;;;;;;7.03;3.20;;;;;;;;;;4896360;29;20320;-80
2024/02/17 12:46:42;;;;;;;5.93;3.05;;;;;;;;;;4895832;29;20662;-79
2024/02/17 12:49:09;;;;;;;5.65;2.95;;;;;;;;;;4895915;29;20201;-80
2024/02/17 12:51:39;;;;;;;5.43;2.83;;;;;;;;;;4896399;29;20228;-80
2024/02/17 12:54:06;;;;;;;8.40;3.13;;;;;;;;;;4895313;29;20240;-80
2024/02/17 12:56:36;;;;;;;8.23;3.20;;;;;;;;;;4895959;29;20264;-79
2024/02/17 12:59:04;;;;;;;6.18;2.95;;;;;;;;;;4896287;29;20281;-80
2024/02/17 13:01:32;;;;;;;3.92;2.80;;;;;;;;;;4895122;29;20288;-79
2024/02/17 13:03:59;;;;;;;5.57;2.78;;;;;;;;;;4895925;29;20233;-79
2024/02/17 13:06:27;;;;;;;10.80;3.45;;;;;;;;;;4899849;29;20296;-79
2024/02/17 13:08:54;;;;;;;9.00;3.00;;;;;;;;;;4899456;29;20235;-80
2024/02/17 13:11:21;;;;;;;5.78;2.88;;;;;;;;;;4892142;29;20197;-79
2024/02/17 13:13:48;;;;;;;8.80;2.85;;;;;;;;;;4880058;29;20285;-79
2024/02/17 13:16:18;;;;;;;7.60;2.70;;;;;;;;;;4880614;29;20198;-79
2024/02/17 13:18:46;;;;;;;6.82;2.70;;;;;;;;;;4881047;29;20205;-80
2024/02/17 13:21:13;;;;;;;5.90;2.50;;;;;;;;;;4877837;29;20198;-79
2024/02/17 13:23:40;;;;;;;4.97;1.88;;;;;;;;;;4870116;29;20198;-79
2024/02/17 13:26:08;;;;;;;5.90;2.00;;;;;;;;;;4871918;29;20329;-79
2024/02/17 13:28:35;;;;;;;6.93;2.22;;;;;;;;;;4871800;29;20230;-80
2024/02/17 13:31:02;;;;;;;5.53;1.83;;;;;;;;;;4870285;29;20254;-79
2024/02/17 13:33:32;;;;;;;3.75;1.67;;;;;;;;;;4871494;29;20230;-79
2024/02/17 13:35:59;;;;;;;5.03;1.55;;;;;;;;;;4877739;29;20237;-78
2024/02/17 13:38:26;;;;;;;6.00;1.40;;;;;;;;;;4880586;29;20294;-80
2024/02/17 13:40:53;;;;;;;6.78;1.70;;;;;;;;;;4881047;29;20222;-81
2024/02/17 13:43:20;;;;;;;5.75;1.98;;;;;;;;;;4880903;29;20237;-80
2024/02/17 13:45:48;;;;;;;4.15;1.65;;;;;;;;;;4880568;29;20293;-79
2024/02/17 13:48:15;;;;;;;5.82;1.63;;;;;;;;;;4880518;29;20206;-80
2024/02/17 13:50:43;;;;;;;4.93;1.48;;;;;;;;;;4880825;29;20578;-80
2024/02/17 13:53:11;;;;;;;4.57;1.65;;;;;;;;;;4880312;29;20229;-80
2024/02/17 13:55:38;;;;;;;5.82;1.48;;;;;;;;;;4880705;29;20202;-80
2024/02/17 13:58:05;;;;;;;5.90;1.42;;;;;;;;;;4880840;29;20241;-80
2024/02/17 14:00:32;;;;;;;5.43;1.75;;;;;;;;;;4880478;29;20202;-80
2024/02/17 14:03:01;;;;;;;6.72;1.90;;;;;;;;;;4880250;29;20238;-80
2024/02/17 14:05:28;;;;;;;7.40;1.50;;;;;;;;;;4880372;29;20237;-79
2024/02/17 14:07:58;;;;;;;4.82;1.30;;;;;;;;;;4879936;29;20206;-80
2024/02/17 14:10:25;;;;;;;4.28;1.70;;;;;;;;;;4880607;29;20201;-81
2024/02/17 14:12:52;;;;;;;3.45;1.25;;;;;;;;;;4880171;29;20722;-80
2024/02/17 14:15:20;;;;;;;7.13;1.90;;;;;;;;;;4880063;29;20304;-81
2024/02/17 14:17:47;;;;;;;5.15;1.70;;;;;;;;;;4880058;29;20742;-80
2024/02/17 14:20:15;;;;;;;6.47;1.80;;;;;;;;;;4880301;29;20261;-80
2024/02/17 14:22:42;;;;;;;6.90;2.60;;;;;;;;;;4880061;29;20225;-79
2024/02/17 14:25:12;;;;;;;4.40;1.63;;;;;;;;;;4879949;29;20294;-80
2024/02/17 14:27:40;;;;;;;4.53;1.77;;;;;;;;;;4879942;29;20266;-78
2024/02/17 14:30:08;;;;;;;9.02;2.50;;;;;;;;;;4884646;29;20197;-81
2024/02/17 14:32:35;;;;;;;4.47;1.85;;;;;;;;;;4879523;29;20213;-80
2024/02/17 14:35:02;;;;;;;5.30;1.88;;;;;;;;;;4881778;29;20206;-80
2024/02/17 14:37:30;;;;;;;3.83;1.83;;;;;;;;;;4890334;29;20640;-80
2024/02/17 14:39:57;;;;;;;5.20;1.90;;;;;;;;;;4879676;29;20201;-81